Time;durP1;ratioP1;P1;durP2;ratioP2;P2;SDS_P1;SDS_P2;PMS_P1;PMS_P2;Temp;Humidity;BMP_temperature;BMP_pressure;BME280_temperature;BME280_humidity;BME280_pressure;Samples;Min_cycle;Max_cycle;Signal;HPM_P1;HPM_P2
2023/12/21 00:01:36;;;;;;;5.78;2.88;;;9.90;99.90;;;;;;5061439;28;20063;-37
2023/12/21 00:04:03;;;;;;;4.85;2.80;;;9.80;99.90;;;;;;5061322;28;20043;-37
2023/12/21 00:06:30;;;;;;;6.10;2.80;;;9.90;99.90;;;;;;5060471;28;20465;-37
2023/12/21 00:08:55;;;;;;;8.77;2.88;;;9.80;99.90;;;;;;5061119;28;20550;-38
2023/12/21 00:11:24;;;;;;;7.68;3.10;;;9.90;99.90;;;;;;5061334;28;20111;-37
2023/12/21 00:13:49;;;;;;;5.28;2.33;;;9.90;99.90;;;;;;5061058;28;20468;-37
2023/12/21 00:16:16;;;;;;;6.93;2.80;;;9.90;99.90;;;;;;5061497;28;20029;-37
2023/12/21 00:18:42;;;;;;;6.82;3.00;;;9.90;99.90;;;;;;5060570;28;20115;-36
2023/12/21 00:21:08;;;;;;;9.18;3.00;;;9.90;99.90;;;;;;5060456;28;20025;-46
2023/12/21 00:23:34;;;;;;;7.90;3.00;;;9.90;99.90;;;;;;5061920;28;20801;-36
2023/12/21 00:26:00;;;;;;;7.68;3.10;;;9.90;99.90;;;;;;5060810;28;20464;-37
2023/12/21 00:28:26;;;;;;;7.53;2.83;;;9.90;99.90;;;;;;5060593;28;20455;-37
2023/12/21 00:30:51;;;;;;;4.43;2.55;;;9.90;99.90;;;;;;5061204;28;20107;-35
2023/12/21 00:33:17;;;;;;;7.47;2.80;;;9.90;99.90;;;;;;5061656;28;20112;-36
2023/12/21 00:35:43;;;;;;;5.72;2.70;;;9.90;99.90;;;;;;5060792;28;20840;-36
2023/12/21 00:38:08;;;;;;;4.57;2.55;;;9.90;99.90;;;;;;5061790;28;20024;-37
2023/12/21 00:40:34;;;;;;;8.38;2.70;;;9.90;99.90;;;;;;5061812;28;20024;-36
2023/12/21 00:43:00;;;;;;;6.72;2.67;;;9.90;99.90;;;;;;5060141;28;20767;-37
2023/12/21 00:45:26;;;;;;;6.65;3.65;;;9.90;99.90;;;;;;5061193;28;20150;-37
2023/12/21 00:47:52;;;;;;;5.88;2.50;;;9.90;99.90;;;;;;5061384;28;20028;-36
2023/12/21 00:50:17;;;;;;;4.55;2.70;;;9.90;99.90;;;;;;5060938;28;20051;-37
2023/12/21 00:52:43;;;;;;;11.35;3.08;;;10.00;99.90;;;;;;5060580;28;20060;-37
2023/12/21 00:55:12;;;;;;;7.45;2.95;;;9.90;99.90;;;;;;5059923;28;20916;-36
2023/12/21 00:57:37;;;;;;;6.93;3.08;;;9.90;99.90;;;;;;5059726;28;20020;-36
2023/12/21 01:00:03;;;;;;;5.78;2.78;;;10.00;99.90;;;;;;5060804;28;20047;-37
2023/12/21 01:02:29;;;;;;;4.18;2.30;;;9.90;99.90;;;;;;5059843;28;20709;-36
2023/12/21 01:05:01;;;;;;;6.35;2.97;;;10.00;99.90;;;;;;5059773;28;20048;-37
2023/12/21 01:07:26;;;;;;;5.90;2.40;;;10.00;99.90;;;;;;5059844;28;20074;-38
2023/12/21 01:09:52;;;;;;;3.60;2.28;;;10.00;99.90;;;;;;5060307;28;20312;-36
2023/12/21 01:12:17;;;;;;;3.22;2.35;;;10.00;99.90;;;;;;5060697;28;20028;-37
2023/12/21 01:14:43;;;;;;;4.88;2.55;;;10.00;99.90;;;;;;5060963;28;20043;-36
2023/12/21 01:17:08;;;;;;;6.13;2.70;;;10.00;99.90;;;;;;5059807;28;20029;-36
2023/12/21 01:19:37;;;;;;;5.28;2.88;;;10.00;99.90;;;;;;5060445;28;20028;-39
2023/12/21 01:22:07;;;;;;;8.32;3.40;;;10.00;99.90;;;;;;5060614;28;20074;-36
2023/12/21 01:24:32;;;;;;;6.45;3.10;;;10.00;99.90;;;;;;5059346;28;20104;-36
2023/12/21 01:26:58;;;;;;;6.35;3.33;;;10.00;99.90;;;;;;5060623;28;20457;-37
2023/12/21 01:29:24;;;;;;;7.45;3.22;;;10.00;99.90;;;;;;5060255;28;20028;-36
2023/12/21 01:31:50;;;;;;;8.20;3.20;;;10.00;99.90;;;;;;5059740;28;20017;-37
2023/12/21 01:34:16;;;;;;;5.82;3.08;;;10.00;99.90;;;;;;5061150;28;20066;-43
2023/12/21 01:36:41;;;;;;;7.50;3.33;;;9.90;99.90;;;;;;5060840;28;20028;-37
2023/12/21 01:39:08;;;;;;;4.22;2.70;;;10.00;99.90;;;;;;5059504;28;20028;-37
2023/12/21 01:41:34;;;;;;;8.40;3.03;;;10.00;99.90;;;;;;5059798;28;20054;-37
2023/12/21 01:44:02;;;;;;;4.80;2.50;;;10.00;99.90;;;;;;5059730;28;20028;-36
2023/12/21 01:46:28;;;;;;;7.28;2.83;;;10.00;99.90;;;;;;5059084;28;20137;-37
2023/12/21 01:48:54;;;;;;;7.20;2.80;;;10.00;99.90;;;;;;5058830;28;20025;-36
2023/12/21 01:51:20;;;;;;;9.52;3.03;;;10.00;99.90;;;;;;5058932;28;20749;-37
2023/12/21 01:53:47;;;;;;;10.13;3.15;;;10.00;99.90;;;;;;5058946;28;20173;-36
2023/12/21 01:56:13;;;;;;;5.75;2.78;;;10.00;99.90;;;;;;5058847;28;20029;-36
2023/12/21 01:58:43;;;;;;;8.50;3.00;;;10.00;99.90;;;;;;5059014;28;20035;-36
2023/12/21 02:01:09;;;;;;;13.60;3.35;;;10.00;99.90;;;;;;5057943;28;20543;-37
2023/12/21 02:03:35;;;;;;;7.25;2.70;;;10.00;99.90;;;;;;5058910;28;20028;-36
2023/12/21 02:06:00;;;;;;;7.82;2.80;;;10.00;99.90;;;;;;5058499;28;20800;-36
2023/12/21 02:08:27;;;;;;;10.43;3.13;;;10.00;99.90;;;;;;5058367;28;20056;-36
2023/12/21 02:11:08;;;;;;;5.65;2.67;;;10.00;99.90;;;;;;5059206;28;20132;-36
2023/12/21 02:13:33;;;;;;;6.20;2.60;;;10.00;99.90;;;;;;5058362;28;20027;-35
2023/12/21 02:16:06;;;;;;;12.43;3.05;;;10.00;99.90;;;;;;5058412;28;20024;-36
2023/12/21 02:18:32;;;;;;;6.55;2.70;;;10.00;99.90;;;;;;5059171;28;20033;-36
2023/12/21 02:20:58;;;;;;;8.43;3.05;;;10.00;99.90;;;;;;5057330;28;20046;-36
2023/12/21 02:23:27;;;;;;;8.23;2.90;;;10.00;99.90;;;;;;5059390;28;20028;-36
2023/12/21 02:25:53;;;;;;;9.48;3.03;;;10.00;99.90;;;;;;5058583;28;20048;-36
2023/12/21 02:28:19;;;;;;;6.40;2.67;;;10.00;99.90;;;;;;5058984;28;20021;-36
2023/12/21 02:30:47;;;;;;;6.85;3.00;;;10.00;99.90;;;;;;5059865;28;20025;-37
2023/12/21 02:33:13;;;;;;;8.95;3.33;;;10.00;99.90;;;;;;5059293;28;20032;-37
2023/12/21 02:35:39;;;;;;;8.35;2.65;;;10.00;99.90;;;;;;5058081;28;20016;-37
2023/12/21 02:38:04;;;;;;;4.00;2.15;;;10.00;99.90;;;;;;5058881;28;20059;-38
2023/12/21 02:40:30;;;;;;;6.10;2.30;;;10.00;99.90;;;;;;5059302;28;20023;-37
2023/12/21 02:42:56;;;;;;;7.78;2.70;;;10.00;99.90;;;;;;5058511;28;20638;-37
2023/12/21 02:45:21;;;;;;;7.70;3.10;;;10.00;99.90;;;;;;5058238;28;20735;-37
2023/12/21 02:47:47;;;;;;;10.43;3.17;;;10.00;99.90;;;;;;5059206;28;20384;-37
2023/12/21 02:50:12;;;;;;;6.90;2.70;;;10.00;99.90;;;;;;5058389;28;20621;-36
2023/12/21 02:52:38;;;;;;;4.88;2.60;;;10.00;99.90;;;;;;5059158;28;20040;-37
2023/12/21 02:55:04;;;;;;;9.45;3.10;;;10.00;99.90;;;;;;5059402;28;20107;-37
2023/12/21 02:57:29;;;;;;;10.90;4.50;;;10.00;99.90;;;;;;5057204;28;20021;-37
2023/12/21 02:59:55;;;;;;;9.75;2.97;;;10.00;99.90;;;;;;5059076;28;20078;-37
2023/12/21 03:02:21;;;;;;;10.13;3.53;;;10.00;99.90;;;;;;5057969;28;20785;-37
2023/12/21 03:04:46;;;;;;;9.73;2.90;;;10.00;99.90;;;;;;5058582;28;20107;-37
2023/12/21 03:07:12;;;;;;;7.93;2.60;;;10.00;99.90;;;;;;5058346;28;20028;-38
2023/12/21 03:09:37;;;;;;;11.38;3.97;;;10.00;99.90;;;;;;5058388;28;20670;-36
2023/12/21 03:12:03;;;;;;;7.97;2.97;;;10.00;99.90;;;;;;5058783;28;20773;-36
2023/12/21 03:14:29;;;;;;;9.88;2.90;;;10.00;99.90;;;;;;5057983;28;20068;-36
2023/12/21 03:16:54;;;;;;;11.55;3.08;;;10.00;99.90;;;;;;5059219;28;20813;-37
2023/12/21 03:19:20;;;;;;;10.07;2.85;;;10.00;99.90;;;;;;5062494;28;20035;-36
2023/12/21 03:21:45;;;;;;;8.35;2.53;;;10.00;99.90;;;;;;5062868;28;20024;-36
2023/12/21 03:24:11;;;;;;;5.93;2.28;;;10.00;99.90;;;;;;5062068;28;20379;-37
2023/12/21 03:26:43;;;;;;;8.13;2.28;;;10.00;99.90;;;;;;5062685;28;20097;-37
2023/12/21 03:29:08;;;;;;;7.00;2.58;;;10.00;99.90;;;;;;5062535;28;20323;-37
2023/12/21 03:31:34;;;;;;;6.60;2.65;;;10.00;99.90;;;;;;5061046;28;20013;-37
2023/12/21 03:33:59;;;;;;;8.57;2.53;;;10.00;99.90;;;;;;5062016;28;20032;-37
2023/12/21 03:36:27;;;;;;;7.85;2.80;;;10.00;99.90;;;;;;5062424;28;20028;-38
2023/12/21 03:38:53;;;;;;;5.80;2.08;;;10.00;99.90;;;;;;5060983;28;20033;-38
2023/12/21 03:41:18;;;;;;;9.80;2.60;;;10.00;99.90;;;;;;5062149;28;20020;-38
2023/12/21 03:43:44;;;;;;;7.35;3.00;;;10.00;99.90;;;;;;5062024;28;20127;-37
2023/12/21 03:46:10;;;;;;;6.22;2.65;;;10.00;99.90;;;;;;5061005;28;20066;-36
2023/12/21 03:48:36;;;;;;;11.65;3.13;;;10.00;99.90;;;;;;5062019;28;20017;-38
2023/12/21 03:51:01;;;;;;;9.48;3.33;;;10.00;99.90;;;;;;5061891;28;20170;-35
2023/12/21 03:53:27;;;;;;;7.95;2.70;;;10.00;99.90;;;;;;5060707;28;20373;-36
2023/12/21 03:55:52;;;;;;;10.45;3.22;;;10.00;99.90;;;;;;5061789;28;20028;-37
2023/12/21 03:58:18;;;;;;;5.85;2.50;;;10.00;99.90;;;;;;5061700;28;20024;-36
2023/12/21 04:00:44;;;;;;;6.30;3.15;;;10.00;99.90;;;;;;5061343;28;20052;-36
2023/12/21 04:03:09;;;;;;;10.45;3.33;;;10.00;99.90;;;;;;5061755;28;20585;-36
2023/12/21 04:05:36;;;;;;;11.75;3.00;;;10.00;99.90;;;;;;5062284;28;20064;-36
2023/12/21 04:08:02;;;;;;;6.82;2.70;;;10.00;99.90;;;;;;5060940;28;20119;-36
2023/12/21 04:10:28;;;;;;;9.18;3.15;;;10.00;99.90;;;;;;5061504;28;20029;-37
2023/12/21 04:12:53;;;;;;;6.05;2.58;;;10.10;99.90;;;;;;5061354;28;20098;-37
2023/12/21 04:15:19;;;;;;;10.55;2.58;;;10.10;99.90;;;;;;5061138;28;20024;-36
2023/12/21 04:17:44;;;;;;;6.90;2.63;;;10.00;99.90;;;;;;5061447;28;20111;-43
2023/12/21 04:20:13;;;;;;;7.82;2.75;;;10.10;99.90;;;;;;5060629;28;20763;-36
2023/12/21 04:22:38;;;;;;;7.50;2.92;;;10.10;99.90;;;;;;5061132;28;20389;-37
2023/12/21 04:25:04;;;;;;;9.95;3.75;;;10.10;99.90;;;;;;5061373;28;20040;-37
2023/12/21 04:27:29;;;;;;;6.78;2.95;;;10.10;99.90;;;;;;5060680;28;20589;-37
2023/12/21 04:29:55;;;;;;;11.32;3.55;;;10.00;99.90;;;;;;5060285;28;20021;-36
2023/12/21 04:32:21;;;;;;;8.10;3.10;;;10.00;99.90;;;;;;5061675;28;20044;-36
2023/12/21 04:34:46;;;;;;;13.18;3.35;;;10.00;99.90;;;;;;5061812;28;20495;-37
2023/12/21 04:37:12;;;;;;;11.20;4.03;;;10.00;99.90;;;;;;5061733;28;20048;-46
2023/12/21 04:39:38;;;;;;;9.38;3.25;;;10.00;99.90;;;;;;5060920;28;20051;-37
2023/12/21 04:42:04;;;;;;;7.90;3.75;;;10.00;99.90;;;;;;5060161;28;20434;-38
2023/12/21 04:44:32;;;;;;;7.95;3.03;;;10.00;99.90;;;;;;5060729;28;20028;-36
2023/12/21 04:46:58;;;;;;;10.45;3.30;;;10.00;99.90;;;;;;5060731;28;20040;-36
2023/12/21 04:49:24;;;;;;;6.88;2.63;;;10.00;99.90;;;;;;5060145;28;20021;-36
2023/12/21 04:51:50;;;;;;;11.25;3.50;;;10.10;99.90;;;;;;5061172;28;20072;-37
2023/12/21 04:54:15;;;;;;;8.23;2.70;;;10.10;99.90;;;;;;5061187;28;20218;-36
2023/12/21 04:56:42;;;;;;;11.60;3.90;;;10.10;99.90;;;;;;5060221;28;20081;-38
2023/12/21 04:59:08;;;;;;;10.20;3.05;;;10.10;99.90;;;;;;5060341;28;20025;-43
2023/12/21 05:01:33;;;;;;;10.48;3.08;;;10.10;99.90;;;;;;5060306;28;20031;-35
2023/12/21 05:04:03;;;;;;;9.82;3.50;;;10.10;99.90;;;;;;5059349;28;20035;-36
2023/12/21 05:06:29;;;;;;;10.60;3.08;;;10.10;99.90;;;;;;5058877;28;20036;-36
2023/12/21 05:08:56;;;;;;;9.90;3.20;;;10.10;99.90;;;;;;5060235;28;20024;-36
2023/12/21 05:11:22;;;;;;;10.25;3.58;;;10.10;99.90;;;;;;5059468;28;20032;-37
2023/12/21 05:13:48;;;;;;;10.27;3.28;;;10.20;99.90;;;;;;5060767;28;20040;-36
2023/12/21 05:16:14;;;;;;;9.95;3.00;;;10.20;99.90;;;;;;5059482;28;20058;-37
2023/12/21 05:18:39;;;;;;;11.27;3.35;;;10.20;99.90;;;;;;5060552;28;20546;-38
2023/12/21 05:21:09;;;;;;;14.18;3.83;;;10.20;99.90;;;;;;5060338;28;20021;-37
2023/12/21 05:23:34;;;;;;;7.10;2.88;;;10.20;99.90;;;;;;5059290;28;20032;-37
2023/12/21 05:26:00;;;;;;;10.00;3.55;;;10.20;99.90;;;;;;5060091;28;20833;-38
2023/12/21 05:28:26;;;;;;;10.18;3.35;;;10.20;99.90;;;;;;5060731;28;20024;-37
2023/12/21 05:30:51;;;;;;;9.90;3.10;;;10.20;99.90;;;;;;5059013;28;20474;-37
2023/12/21 05:33:17;;;;;;;8.88;4.13;;;10.20;99.90;;;;;;5060303;28;20028;-36
2023/12/21 05:35:43;;;;;;;8.50;3.20;;;10.20;99.90;;;;;;5059320;28;20032;-38
2023/12/21 05:38:08;;;;;;;7.80;3.17;;;10.20;99.90;;;;;;5058808;28;20634;-37
2023/12/21 05:40:34;;;;;;;10.60;3.03;;;10.20;99.90;;;;;;5059275;28;20869;-38
2023/12/21 05:43:00;;;;;;;7.65;2.72;;;10.20;99.90;;;;;;5059828;28;20038;-36
2023/12/21 05:45:25;;;;;;;11.55;3.30;;;10.20;99.90;;;;;;5059087;28;20486;-36
2023/12/21 05:47:51;;;;;;;9.25;3.20;;;10.20;99.90;;;;;;5058084;28;20028;-37
2023/12/21 05:50:16;;;;;;;9.23;3.17;;;10.20;99.90;;;;;;5060244;28;20056;-37
2023/12/21 05:52:42;;;;;;;13.05;3.70;;;10.20;99.90;;;;;;5058731;28;20053;-37
2023/12/21 05:55:14;;;;;;;8.50;3.30;;;10.20;99.90;;;;;;5059547;28;20410;-41
2023/12/21 05:57:40;;;;;;;10.65;3.45;;;10.10;99.90;;;;;;5059483;28;20383;-36
2023/12/21 06:00:06;;;;;;;8.88;2.90;;;10.20;99.90;;;;;;5059256;28;20036;-36
2023/12/21 06:02:31;;;;;;;8.32;3.22;;;10.10;99.90;;;;;;5059156;28;20422;-37
2023/12/21 06:04:58;;;;;;;8.05;3.13;;;10.10;99.90;;;;;;5059559;28;20033;-37
2023/12/21 06:07:24;;;;;;;7.05;2.60;;;10.10;99.90;;;;;;5058773;28;20028;-36
2023/12/21 06:09:50;;;;;;;8.38;2.95;;;10.10;99.90;;;;;;5059393;28;20062;-36
2023/12/21 06:12:15;;;;;;;10.50;3.70;;;10.10;99.90;;;;;;5059372;28;20021;-36
2023/12/21 06:14:42;;;;;;;7.95;3.25;;;10.20;99.90;;;;;;5059169;28;20028;-36
2023/12/21 06:17:09;;;;;;;8.02;2.97;;;10.20;99.90;;;;;;5059046;28;20028;-36
2023/12/21 06:19:37;;;;;;;8.10;2.90;;;10.20;99.90;;;;;;5059299;28;20353;-36
2023/12/21 06:22:03;;;;;;;8.52;2.95;;;10.10;99.90;;;;;;5059772;28;20032;-36
2023/12/21 06:24:29;;;;;;;7.57;3.17;;;10.20;99.90;;;;;;5059187;28;20012;-38
2023/12/21 06:26:54;;;;;;;6.72;2.60;;;10.20;99.90;;;;;;5058836;28;20041;-36
2023/12/21 06:29:20;;;;;;;6.75;3.35;;;10.20;99.90;;;;;;5059514;28;20020;-42
2023/12/21 06:31:45;;;;;;;8.85;3.85;;;10.20;99.90;;;;;;5059968;28;20028;-37
2023/12/21 06:34:11;;;;;;;7.85;3.15;;;10.20;99.90;;;;;;5058347;28;20035;-36
2023/12/21 06:36:36;;;;;;;8.63;2.85;;;10.20;99.90;;;;;;5059130;28;20133;-39
2023/12/21 06:39:03;;;;;;;6.90;3.33;;;10.20;99.90;;;;;;5058969;28;20024;-37
2023/12/21 06:41:28;;;;;;;7.00;3.35;;;10.20;99.90;;;;;;5058417;28;20024;-37
2023/12/21 06:43:54;;;;;;;7.75;3.22;;;10.20;99.90;;;;;;5058455;28;20033;-37
2023/12/21 06:46:21;;;;;;;6.88;3.15;;;10.20;99.90;;;;;;5058632;28;20037;-36
2023/12/21 06:48:46;;;;;;;5.55;2.92;;;10.20;99.90;;;;;;5058506;28;20501;-36
2023/12/21 06:51:13;;;;;;;6.88;3.08;;;10.20;99.90;;;;;;5059080;28;20112;-37
2023/12/21 06:53:42;;;;;;;5.55;2.80;;;10.20;99.90;;;;;;5062384;28;20093;-36
2023/12/21 06:56:11;;;;;;;6.38;2.78;;;10.20;99.90;;;;;;5062556;28;20059;-37
2023/12/21 06:58:38;;;;;;;9.93;2.85;;;10.20;99.90;;;;;;5063357;28;20017;-38
2023/12/21 07:01:04;;;;;;;5.93;2.75;;;10.30;99.90;;;;;;5063208;28;20123;-36
2023/12/21 07:03:30;;;;;;;7.55;2.92;;;10.30;99.90;;;;;;5061827;28;20052;-37
2023/12/21 07:05:55;;;;;;;5.47;2.90;;;10.20;99.90;;;;;;5062407;28;20144;-37
2023/12/21 07:08:24;;;;;;;8.07;3.22;;;10.20;99.90;;;;;;5062205;28;20132;-36
2023/12/21 07:10:50;;;;;;;8.38;3.42;;;10.20;99.90;;;;;;5061930;28;20028;-39
2023/12/21 07:13:15;;;;;;;6.68;2.92;;;10.30;99.90;;;;;;5063563;28;20013;-41
2023/12/21 07:15:41;;;;;;;10.48;3.72;;;10.30;99.90;;;;;;5061614;28;20051;-37
2023/12/21 07:18:06;;;;;;;9.38;2.78;;;10.20;99.90;;;;;;5063484;28;20078;-37
2023/12/21 07:20:32;;;;;;;8.07;2.75;;;10.30;99.90;;;;;;5061980;28;20024;-36
2023/12/21 07:22:58;;;;;;;7.05;2.58;;;10.20;99.90;;;;;;5061284;28;20087;-36
2023/12/21 07:25:23;;;;;;;10.13;2.70;;;10.20;99.90;;;;;;5061644;28;20028;-37
2023/12/21 07:27:49;;;;;;;8.10;2.40;;;10.30;99.90;;;;;;5062020;28;20863;-37
2023/12/21 07:30:16;;;;;;;8.60;2.45;;;10.20;99.90;;;;;;5062471;28;20052;-37
2023/12/21 07:32:45;;;;;;;10.18;4.05;;;10.30;99.90;;;;;;5063220;28;20456;-37
2023/12/21 07:35:11;;;;;;;7.00;2.40;;;10.20;99.90;;;;;;5062690;28;20141;-37
2023/12/21 07:37:36;;;;;;;9.38;2.78;;;10.20;99.90;;;;;;5061410;28;20017;-37
2023/12/21 07:40:03;;;;;;;11.27;2.88;;;10.20;99.90;;;;;;5061857;28;20070;-37
2023/12/21 07:42:28;;;;;;;8.52;2.15;;;10.20;99.90;;;;;;5062984;28;20047;-37
2023/12/21 07:44:54;;;;;;;13.50;2.83;;;10.20;99.90;;;;;;5062284;28;20029;-37
2023/12/21 07:47:19;;;;;;;6.53;2.28;;;10.20;99.90;;;;;;5062125;28;20028;-37
2023/12/21 07:49:45;;;;;;;9.02;2.67;;;10.20;99.90;;;;;;5062307;28;20024;-36
2023/12/21 07:52:12;;;;;;;12.95;2.85;;;10.20;99.90;;;;;;5061021;28;20106;-38
2023/12/21 07:54:37;;;;;;;8.52;2.30;;;10.20;99.90;;;;;;5061486;28;20044;-37
2023/12/21 07:57:03;;;;;;;10.48;3.15;;;10.20;99.90;;;;;;5061837;28;20024;-36
2023/12/21 07:59:29;;;;;;;8.05;2.30;;;10.20;99.90;;;;;;5061299;28;20035;-36
2023/12/21 08:01:57;;;;;;;7.88;2.35;;;10.20;99.90;;;;;;5062175;28;20051;-36
2023/12/21 08:04:23;;;;;;;8.40;2.35;;;10.30;99.90;;;;;;5061413;28;20039;-37
2023/12/21 08:06:49;;;;;;;9.65;2.75;;;10.30;99.90;;;;;;5060885;28;20032;-39
2023/12/21 08:09:17;;;;;;;7.75;2.10;;;10.30;99.90;;;;;;5062265;28;20029;-36
2023/12/21 08:11:43;;;;;;;12.05;2.20;;;10.30;99.90;;;;;;5061206;28;20032;-36
2023/12/21 08:14:11;;;;;;;7.45;2.47;;;10.30;99.90;;;;;;5060928;28;20501;-37
2023/12/21 08:16:37;;;;;;;6.53;1.90;;;10.30;99.90;;;;;;5061181;28;20048;-37
2023/12/21 08:19:03;;;;;;;6.63;1.73;;;10.30;99.90;;;;;;5061209;28;20063;-36
2023/12/21 08:21:28;;;;;;;5.63;2.10;;;10.30;99.90;;;;;;5061293;28;20100;-36
2023/12/21 08:23:56;;;;;;;7.80;2.30;;;10.30;99.90;;;;;;5060984;28;20128;-36
2023/12/21 08:26:21;;;;;;;7.55;2.65;;;10.30;99.90;;;;;;5059731;28;20044;-36
2023/12/21 08:28:47;;;;;;;6.75;1.88;;;10.30;99.90;;;;;;5061213;28;20474;-37
2023/12/21 08:31:25;;;;;;;6.28;1.95;;;10.30;99.90;;;;;;5060218;28;20036;-37
2023/12/21 08:33:54;;;;;;;4.00;1.73;;;10.30;99.90;;;;;;5055561;28;20025;-37
2023/12/21 08:36:20;;;;;;;5.13;1.75;;;10.30;99.90;;;;;;5059201;28;20024;-36
2023/12/21 08:38:48;;;;;;;7.43;1.67;;;10.30;99.90;;;;;;5059537;28;20048;-36
2023/12/21 08:41:14;;;;;;;4.40;1.52;;;10.30;99.90;;;;;;5059619;28;20170;-36
2023/12/21 08:43:39;;;;;;;3.78;1.67;;;10.30;99.90;;;;;;5059356;28;20036;-36
2023/12/21 08:46:05;;;;;;;6.82;1.85;;;10.40;99.90;;;;;;5060166;28;20033;-37
2023/12/21 08:48:31;;;;;;;4.80;1.48;;;10.30;99.90;;;;;;5059958;28;20020;-38
2023/12/21 08:50:56;;;;;;;4.28;1.77;;;10.40;99.90;;;;;;5060809;28;20025;-36
2023/12/21 08:53:22;;;;;;;5.47;1.67;;;10.40;99.90;;;;;;5060770;28;20059;-36
2023/12/21 08:55:50;;;;;;;5.47;1.85;;;10.40;99.90;;;;;;5060157;28;20032;-37
2023/12/21 08:58:16;;;;;;;4.32;1.85;;;10.40;99.90;;;;;;5060715;28;20112;-36
2023/12/21 09:00:45;;;;;;;4.38;1.60;;;10.40;99.90;;;;;;5060778;28;20024;-38
2023/12/21 09:03:11;;;;;;;4.10;1.70;;;10.40;99.90;;;;;;5059110;28;20048;-37
2023/12/21 09:05:37;;;;;;;6.70;1.75;;;10.40;99.90;;;;;;5060326;28;20202;-36
2023/12/21 09:08:03;;;;;;;6.38;2.30;;;10.40;99.90;;;;;;5060849;28;20577;-36
2023/12/21 09:10:28;;;;;;;5.78;1.83;;;10.40;99.90;;;;;;5059573;28;20020;-37
2023/12/21 09:12:54;;;;;;;5.07;1.85;;;10.50;99.90;;;;;;5060195;28;20029;-37
2023/12/21 09:15:20;;;;;;;8.02;2.22;;;10.50;99.90;;;;;;5058467;28;20575;-37
2023/12/21 09:17:46;;;;;;;6.03;1.90;;;10.50;99.90;;;;;;5059957;28;20075;-37
2023/12/21 09:20:13;;;;;;;5.97;1.80;;;10.50;99.90;;;;;;5060164;28;20032;-40
2023/12/21 09:22:42;;;;;;;8.00;2.30;;;10.50;99.90;;;;;;5059497;28;20399;-37
2023/12/21 09:25:08;;;;;;;6.43;1.70;;;10.60;99.90;;;;;;5058976;28;20025;-35
2023/12/21 09:27:34;;;;;;;5.07;1.55;;;10.60;99.90;;;;;;5059862;28;20036;-40
2023/12/21 09:30:00;;;;;;;5.70;1.48;;;10.60;99.90;;;;;;5058210;28;20039;-36
2023/12/21 09:32:25;;;;;;;3.30;1.45;;;10.60;99.90;;;;;;5059562;28;20028;-35
2023/12/21 09:34:51;;;;;;;5.55;1.73;;;10.70;99.90;;;;;;5060024;28;20040;-35
2023/12/21 09:37:16;;;;;;;8.00;1.52;;;10.70;99.90;;;;;;5059075;28;20024;-35
2023/12/21 09:39:42;;;;;;;6.63;1.40;;;10.70;99.90;;;;;;5059210;28;20067;-35
2023/12/21 09:42:12;;;;;;;5.47;1.35;;;10.70;99.90;;;;;;5059973;28;20587;-36
2023/12/21 09:44:38;;;;;;;7.50;1.83;;;10.70;99.90;;;;;;5058817;28;20085;-34
2023/12/21 09:47:04;;;;;;;7.25;1.77;;;10.70;99.90;;;;;;5059929;28;20214;-36
2023/12/21 09:49:36;;;;;;;4.55;1.50;;;10.80;99.90;;;;;;5061964;28;20091;-35
2023/12/21 09:52:07;;;;;;;4.78;1.40;;;10.80;99.90;;;;;;5059682;28;20020;-35
2023/12/21 09:54:35;;;;;;;5.15;1.92;;;10.80;99.90;;;;;;5059726;28;20052;-35
2023/12/21 09:57:02;;;;;;;4.53;1.55;;;10.80;99.90;;;;;;5059354;28;20094;-36
2023/12/21 09:59:31;;;;;;;6.13;1.50;;;10.80;99.90;;;;;;5059725;28;20017;-39
2023/12/21 10:01:57;;;;;;;5.68;1.50;;;10.80;99.90;;;;;;5048399;28;20036;-37
2023/12/21 10:04:22;;;;;;;7.05;1.75;;;10.80;99.90;;;;;;5058652;28;20048;-37
2023/12/21 10:06:51;;;;;;;7.75;1.70;;;10.90;99.90;;;;;;5059462;28;20043;-35
2023/12/21 10:09:18;;;;;;;4.60;1.48;;;10.90;99.90;;;;;;5060005;28;20043;-35
2023/12/21 10:11:44;;;;;;;6.45;1.55;;;10.90;99.90;;;;;;5059601;28;20060;-36
2023/12/21 10:14:19;;;;;;;5.65;1.30;;;10.90;99.90;;;;;;5059346;28;20111;-36
2023/12/21 10:16:45;;;;;;;6.57;1.27;;;11.00;99.90;;;;;;5059157;28;20028;-36
2023/12/21 10:19:12;;;;;;;4.85;1.33;;;11.00;99.90;;;;;;5059012;28;20020;-36
2023/12/21 10:21:40;;;;;;;5.47;1.25;;;11.00;99.90;;;;;;5058372;28;20112;-36
2023/12/21 10:24:07;;;;;;;7.05;1.23;;;11.00;99.90;;;;;;5057720;28;20024;-36
2023/12/21 10:26:40;;;;;;;4.43;0.90;;;11.00;99.90;;;;;;5058249;28;20148;-35
2023/12/21 10:29:09;;;;;;;5.85;1.58;;;11.10;99.90;;;;;;5058839;28;20566;-36
2023/12/21 10:31:34;;;;;;;3.22;0.98;;;11.10;99.90;;;;;;5058540;28;20040;-36
2023/12/21 10:34:00;;;;;;;4.00;1.33;;;11.10;99.90;;;;;;5058239;28;20036;-36
2023/12/21 10:36:32;;;;;;;5.25;1.20;;;11.10;99.90;;;;;;5058936;28;20028;-35
2023/12/21 10:38:58;;;;;;;4.37;1.23;;;11.10;99.90;;;;;;5059435;28;20028;-36
2023/12/21 10:41:23;;;;;;;4.43;1.00;;;11.20;99.90;;;;;;5058041;28;20775;-35
2023/12/21 10:43:49;;;;;;;1.92;1.00;;;11.20;99.90;;;;;;5057927;28;20188;-36
2023/12/21 10:46:17;;;;;;;3.35;1.42;;;11.20;99.90;;;;;;5059138;28;20028;-36
2023/12/21 10:48:43;;;;;;;5.13;1.20;;;11.20;99.90;;;;;;5058129;28;20025;-36
2023/12/21 10:51:11;;;;;;;3.22;1.27;;;11.20;99.90;;;;;;5058445;28;20115;-36
2023/12/21 10:53:37;;;;;;;4.35;1.15;;;11.30;99.90;;;;;;5058130;28;20053;-36
2023/12/21 10:56:08;;;;;;;6.40;1.25;;;11.30;99.90;;;;;;5057958;28;20143;-36
2023/12/21 10:58:34;;;;;;;3.10;1.10;;;11.30;99.90;;;;;;5058250;28;20025;-35
2023/12/21 11:01:02;;;;;;;3.80;1.20;;;11.30;99.90;;;;;;5057409;28;20033;-36
2023/12/21 11:03:28;;;;;;;5.95;1.40;;;11.40;99.90;;;;;;5058609;28;20032;-36
2023/12/21 11:05:56;;;;;;;4.53;1.20;;;11.40;99.90;;;;;;5058437;28;20120;-35
2023/12/21 11:08:25;;;;;;;1.73;0.88;;;11.40;99.90;;;;;;5057951;28;20032;-35
2023/12/21 11:10:52;;;;;;;4.78;1.33;;;11.40;99.90;;;;;;5059582;28;20033;-35
2023/12/21 11:13:18;;;;;;;7.32;1.55;;;11.40;99.90;;;;;;5059563;28;20028;-35
2023/12/21 11:15:44;;;;;;;3.75;1.35;;;11.40;99.90;;;;;;5059272;28;20033;-35
2023/12/21 11:18:15;;;;;;;5.72;1.42;;;11.40;99.90;;;;;;5059000;28;20047;-36
2023/12/21 11:20:59;;;;;;;4.57;1.10;;;11.30;99.90;;;;;;5058493;28;20029;-35
2023/12/21 11:23:26;;;;;;;4.80;1.23;;;11.30;99.90;;;;;;5057625;28;20021;-35
2023/12/21 11:25:59;;;;;;;3.78;0.90;;;11.40;99.90;;;;;;5058894;28;20044;-36
2023/12/21 11:28:27;;;;;;;5.22;1.17;;;11.40;99.90;;;;;;5058094;28;20753;-37
2023/12/21 11:30:53;;;;;;;3.83;0.82;;;11.30;99.90;;;;;;5057527;28;20052;-35
2023/12/21 11:33:29;;;;;;;3.28;1.00;;;11.40;99.90;;;;;;5058930;28;20124;-36
2023/12/21 11:35:57;;;;;;;3.90;1.08;;;11.40;99.90;;;;;;5058599;28;20052;-36
2023/12/21 11:38:51;;;;;;;5.10;1.55;;;11.40;99.90;;;;;;5060648;28;20097;-36
2023/12/21 11:41:20;;;;;;;5.25;1.20;;;11.40;99.90;;;;;;5063178;28;20107;-36
2023/12/21 11:43:59;;;;;;;3.95;1.10;;;11.40;99.90;;;;;;5061863;28;20596;-35
2023/12/21 11:46:25;;;;;;;3.65;0.82;;;11.40;99.90;;;;;;5061818;28;20047;-36
2023/12/21 11:48:50;;;;;;;5.75;1.10;;;11.40;99.90;;;;;;5061424;28;20828;-35
2023/12/21 11:51:16;;;;;;;5.95;1.23;;;11.40;99.90;;;;;;5061755;28;20059;-35
2023/12/21 11:53:43;;;;;;;6.40;1.52;;;11.40;99.90;;;;;;5060983;28;20583;-36
2023/12/21 11:56:16;;;;;;;4.40;1.20;;;11.40;99.90;;;;;;5061794;28;20067;-35
2023/12/21 11:58:47;;;;;;;3.42;0.95;;;11.40;99.90;;;;;;5061255;28;20099;-36
2023/12/21 12:01:29;;;;;;;4.30;1.15;;;11.40;99.90;;;;;;5061888;28;20060;-36
2023/12/21 12:03:55;;;;;;;3.60;1.42;;;11.30;99.90;;;;;;5061892;28;20024;-36
2023/12/21 12:06:23;;;;;;;5.35;1.25;;;11.30;99.90;;;;;;5061703;28;20043;-36
2023/12/21 12:08:49;;;;;;;4.00;1.13;;;11.30;99.90;;;;;;5062158;28;20106;-36
2023/12/21 12:11:15;;;;;;;6.10;1.33;;;11.30;99.90;;;;;;5061162;28;20037;-37
2023/12/21 12:13:41;;;;;;;5.18;1.33;;;11.30;99.90;;;;;;5062275;28;20103;-36
2023/12/21 12:16:07;;;;;;;5.03;1.30;;;11.30;99.90;;;;;;5061778;28;20365;-36
2023/12/21 12:18:32;;;;;;;3.92;1.25;;;11.30;99.90;;;;;;5060321;28;20493;-37
2023/12/21 12:21:00;;;;;;;4.13;1.38;;;11.40;99.90;;;;;;5061160;28;20024;-36
2023/12/21 12:23:27;;;;;;;4.82;1.23;;;11.40;99.90;;;;;;5061704;28;20109;-36
2023/12/21 12:25:52;;;;;;;4.25;1.17;;;11.50;99.90;;;;;;5060216;28;20439;-36
2023/12/21 12:28:18;;;;;;;5.22;1.50;;;11.50;99.90;;;;;;5062028;28;20498;-36
2023/12/21 12:30:44;;;;;;;3.45;1.25;;;11.50;99.90;;;;;;5061542;28;20024;-36
2023/12/21 12:33:10;;;;;;;5.38;1.40;;;11.50;99.90;;;;;;5061441;28;20063;-36
2023/12/21 12:35:40;;;;;;;7.25;1.70;;;11.50;99.90;;;;;;5061790;28;20027;-35
2023/12/21 12:38:06;;;;;;;6.32;1.58;;;11.40;99.90;;;;;;5061145;28;20036;-36
2023/12/21 12:40:33;;;;;;;6.13;1.40;;;11.40;99.90;;;;;;5060853;28;20091;-38
2023/12/21 12:43:00;;;;;;;4.47;1.30;;;11.40;99.90;;;;;;5060761;28;20058;-36